createdAt,value
2018-08-23T00:00:34.319Z,21.53
2018-08-23T00:03:02.610Z,21.40
2018-08-23T00:05:31.249Z,20.10
2018-08-23T00:08:09.998Z,21.10
2018-08-23T00:10:38.205Z,20.33
2018-08-23T00:13:07.146Z,21.27
2018-08-23T00:15:35.413Z,20.90
2018-08-23T00:18:03.644Z,22.00
2018-08-23T00:20:31.924Z,20.97
2018-08-23T00:23:00.185Z,21.80
2018-08-23T00:25:28.451Z,21.33
2018-08-23T00:27:56.670Z,22.83
2018-08-23T00:30:27.668Z,22.27
2018-08-23T00:32:55.918Z,21.57
2018-08-23T00:35:24.277Z,22.57
2018-08-23T00:37:52.530Z,21.17
2018-08-23T00:40:20.745Z,21.07
2018-08-23T00:42:54.369Z,22.23
2018-08-23T00:45:22.626Z,20.63
2018-08-23T00:47:50.853Z,22.97
2018-08-23T00:50:59.541Z,20.80
2018-08-23T00:53:28.960Z,21.53
2018-08-23T00:56:13.025Z,21.97
2018-08-23T00:58:44.041Z,22.67
2018-08-23T01:01:13.698Z,22.43
2018-08-23T01:03:42.165Z,22.67
2018-08-23T01:06:10.397Z,22.70
2018-08-23T01:08:38.660Z,22.73
2018-08-23T01:11:08.411Z,22.37
2018-08-23T01:13:36.717Z,23.33
2018-08-23T01:16:04.948Z,22.90
2018-08-23T01:18:33.165Z,22.10
2018-08-23T01:21:06.717Z,23.13
2018-08-23T01:23:35.221Z,24.00
2018-08-23T01:26:04.438Z,24.50
2018-08-23T01:28:32.865Z,23.63
2018-08-23T01:31:16.929Z,25.13
2018-08-23T01:33:45.545Z,24.13
2018-08-23T01:36:15.246Z,25.37
2018-08-23T01:38:43.456Z,22.90
2018-08-23T01:41:12.532Z,22.80
2018-08-23T01:43:41.965Z,24.13
2018-08-23T01:46:10.202Z,25.07
2018-08-23T01:48:39.149Z,24.60
2018-08-23T01:51:07.370Z,24.50
2018-08-23T01:53:38.248Z,23.87
2018-08-23T01:56:07.420Z,23.73
2018-08-23T01:58:35.849Z,24.87
2018-08-23T02:01:14.504Z,23.23
2018-08-23T02:03:43.077Z,22.87
2018-08-23T02:06:11.297Z,22.70
2018-08-23T02:08:39.553Z,25.43
2018-08-23T02:11:07.946Z,23.93
2018-08-23T02:13:36.176Z,23.13
2018-08-23T02:16:04.729Z,22.90
2018-08-23T02:18:33.760Z,24.90
2018-08-23T02:21:10.937Z,23.20
2018-08-23T02:23:46.715Z,21.40
2018-08-23T02:26:15.192Z,23.90
2018-08-23T02:28:45.952Z,24.40
2018-08-23T02:31:14.189Z,23.07
2018-08-23T02:33:42.429Z,22.97
2018-08-23T02:36:17.572Z,24.50
2018-08-23T02:38:47.505Z,24.40
2018-08-23T02:41:16.184Z,23.77
2018-08-23T02:43:44.909Z,24.27
2018-08-23T02:46:13.113Z,24.03
2018-08-23T02:48:41.357Z,25.00
2018-08-23T02:51:09.613Z,24.03
2018-08-23T02:53:40.105Z,23.77
2018-08-23T02:56:09.876Z,22.93
2018-08-23T02:58:51.150Z,24.00
2018-08-23T03:01:19.414Z,24.63
2018-08-23T03:04:00.593Z,26.30
2018-08-23T03:06:33.616Z,27.40
2018-08-23T03:09:01.905Z,25.97
2018-08-23T03:11:30.129Z,25.93
2018-08-23T03:13:58.399Z,24.87
2018-08-23T03:16:31.353Z,25.57
2018-08-23T03:18:59.607Z,29.20
2018-08-23T03:21:27.838Z,26.00
2018-08-23T03:23:56.069Z,26.27
2018-08-23T03:26:24.306Z,25.67
2018-08-23T03:28:52.512Z,28.07
2018-08-23T03:31:20.741Z,27.37
2018-08-23T03:33:48.965Z,28.67
2018-08-23T03:36:17.185Z,28.63
2018-08-23T03:38:45.408Z,30.23
2018-08-23T03:41:13.641Z,27.67
2018-08-23T03:43:41.986Z,31.17
2018-08-23T03:46:10.225Z,30.67
2018-08-23T03:48:38.460Z,29.47
2018-08-23T03:51:07.510Z,31.00
2018-08-23T03:53:47.892Z,31.77
2018-08-23T03:56:16.976Z,28.87
2018-08-23T03:58:45.293Z,28.83
2018-08-23T04:01:13.887Z,31.30
2018-08-23T04:03:42.376Z,29.07
2018-08-23T04:06:36.224Z,32.80
2018-08-23T04:09:07.757Z,34.33
2018-08-23T04:11:36.021Z,32.13
2018-08-23T04:14:04.301Z,30.43
2018-08-23T04:16:32.644Z,31.00
2018-08-23T04:19:00.873Z,34.37
2018-08-23T04:21:30.281Z,32.03
2018-08-23T04:23:58.609Z,32.87
2018-08-23T04:26:27.813Z,32.57
2018-08-23T04:28:56.072Z,34.13
2018-08-23T04:31:24.329Z,32.10
2018-08-23T04:33:52.588Z,32.77
2018-08-23T04:36:28.728Z,34.43
2018-08-23T04:38:59.864Z,33.00
2018-08-23T04:41:28.853Z,34.20
2018-08-23T04:44:06.969Z,33.40
2018-08-23T04:46:35.245Z,32.30
2018-08-23T04:49:05.617Z,32.30
2018-08-23T04:51:34.439Z,33.97
2018-08-23T04:54:02.937Z,33.33
2018-08-23T04:56:31.613Z,36.03
2018-08-23T04:59:00.109Z,32.63
2018-08-23T05:01:28.481Z,33.23
2018-08-23T05:03:56.688Z,33.80
2018-08-23T05:06:25.044Z,33.60
2018-08-23T05:08:53.304Z,29.50
2018-08-23T05:11:21.521Z,31.27
2018-08-23T05:13:56.415Z,30.97
2018-08-23T05:16:24.705Z,31.63
2018-08-23T05:18:52.989Z,32.63
2018-08-23T05:21:21.285Z,32.50
2018-08-23T05:23:49.605Z,32.30
2018-08-23T05:26:19.200Z,33.93
2018-08-23T05:28:59.817Z,30.60
2018-08-23T05:31:29.516Z,32.63
2018-08-23T05:34:05.367Z,31.70
2018-08-23T05:36:33.621Z,31.47
2018-08-23T05:39:02.458Z,31.37
2018-08-23T05:41:30.932Z,32.33
2018-08-23T05:44:03.669Z,30.17
2018-08-23T05:46:36.481Z,28.23
2018-08-23T05:49:05.043Z,27.47
2018-08-23T05:51:36.122Z,27.33
2018-08-23T05:54:04.561Z,23.90
2018-08-23T05:56:32.953Z,26.80
2018-08-23T05:59:06.549Z,27.20
2018-08-23T06:01:34.786Z,28.73
2018-08-23T06:04:03.112Z,29.03
2018-08-23T06:06:31.361Z,31.37
2018-08-23T06:09:01.466Z,30.77
2018-08-23T06:11:29.870Z,28.07
2018-08-23T06:13:58.106Z,27.83
2018-08-23T06:16:26.393Z,28.33
2018-08-23T06:18:54.673Z,30.67
2018-08-23T06:21:22.901Z,28.17
2018-08-23T06:23:56.034Z,29.23
2018-08-23T06:26:55.251Z,33.47
2018-08-23T06:29:26.585Z,32.40
2018-08-23T06:32:06.400Z,35.93
2018-08-23T06:34:39.581Z,34.03
2018-08-23T06:37:07.876Z,34.07
2018-08-23T06:39:36.249Z,31.27
2018-08-23T06:42:04.846Z,33.73
2018-08-23T06:44:36.676Z,36.53
2018-08-23T06:47:04.969Z,34.53
2018-08-23T06:49:33.297Z,34.47
2018-08-23T06:52:09.286Z,33.10
2018-08-23T06:54:37.524Z,34.37
2018-08-23T06:57:05.756Z,34.27
2018-08-23T06:59:34.025Z,34.40
2018-08-23T07:02:02.622Z,32.67
2018-08-23T07:04:30.884Z,37.87
2018-08-23T07:06:59.149Z,34.57
2018-08-23T07:09:27.361Z,34.87
2018-08-23T07:12:04.509Z,40.10
2018-08-23T07:14:34.367Z,43.80
2018-08-23T07:17:18.092Z,38.80
2018-08-23T07:19:47.249Z,36.80
2018-08-23T07:22:20.809Z,37.60
2018-08-23T07:24:49.857Z,36.83
2018-08-23T07:27:19.303Z,35.43
2018-08-23T07:29:48.853Z,36.17
2018-08-23T07:32:18.162Z,36.70
2018-08-23T07:35:18.306Z,37.17
2018-08-23T07:37:48.992Z,37.93
2018-08-23T07:40:19.280Z,38.10
2018-08-23T07:42:48.967Z,37.33
2018-08-23T07:45:17.169Z,39.10
2018-08-23T07:47:50.576Z,41.53
2018-08-23T07:50:18.981Z,40.40
2018-08-23T07:52:51.006Z,41.57
2018-08-23T07:55:19.145Z,41.43
2018-08-23T07:57:47.597Z,39.93
2018-08-23T08:00:25.716Z,44.33
2018-08-23T08:02:54.077Z,43.00
2018-08-23T08:05:24.209Z,44.60
2018-08-23T08:07:52.470Z,42.30
2018-08-23T08:10:20.917Z,42.20
2018-08-23T08:12:52.313Z,43.50
2018-08-23T08:15:20.789Z,44.57
2018-08-23T08:17:48.929Z,41.90
2018-08-23T08:20:17.201Z,43.00
2018-08-23T08:22:45.429Z,45.20
2018-08-23T08:25:19.273Z,43.27
2018-08-23T08:27:48.457Z,41.83
2018-08-23T08:30:19.431Z,44.03
2018-08-23T08:32:47.652Z,38.83
2018-08-23T08:35:19.073Z,36.63
2018-08-23T08:37:48.937Z,33.17
2018-08-23T08:40:24.249Z,29.87
2018-08-23T08:42:52.478Z,26.23
2018-08-23T08:45:20.913Z,31.70
2018-08-23T08:47:49.189Z,27.17
2018-08-23T08:50:17.489Z,25.50
2018-08-23T08:52:45.658Z,25.57
2018-08-23T08:55:15.537Z,22.00
2018-08-23T08:57:45.093Z,22.20
2018-08-23T09:00:13.297Z,22.90
2018-08-23T09:02:41.652Z,26.30
2018-08-23T09:05:10.617Z,22.20
2018-08-23T09:07:40.437Z,19.20
2018-08-23T09:10:08.716Z,20.83
2018-08-23T09:12:54.249Z,22.83
2018-08-23T09:15:22.612Z,26.43
2018-08-23T09:17:50.904Z,20.20
2018-08-23T09:20:19.867Z,14.03
2018-08-23T09:22:57.093Z,16.73
2018-08-23T09:25:28.132Z,15.50
2018-08-23T09:27:56.360Z,17.73
2018-08-23T09:30:30.778Z,13.53
2018-08-23T09:33:03.185Z,16.87
2018-08-23T09:35:32.677Z,15.17
2018-08-23T09:38:02.409Z,12.87
2018-08-23T09:40:30.737Z,14.87
2018-08-23T09:43:03.017Z,12.53
2018-08-23T09:45:32.269Z,13.80
2018-08-23T09:48:00.558Z,12.77
2018-08-23T09:50:28.890Z,10.83
2018-08-23T09:52:57.164Z,10.33
2018-08-23T09:55:28.609Z,11.70
2018-08-23T09:57:57.488Z,10.30
2018-08-23T10:00:31.440Z,9.80
2018-08-23T10:03:05.119Z,9.00
2018-08-23T10:05:38.750Z,7.90
2018-08-23T10:08:12.285Z,7.10
2018-08-23T10:10:45.885Z,6.13
2018-08-23T10:13:19.594Z,6.60
2018-08-23T10:16:53.857Z,8.17
2018-08-23T10:19:27.333Z,7.27
2018-08-23T10:22:00.929Z,8.57
2018-08-23T10:24:32.837Z,7.23
2018-08-23T10:27:01.425Z,6.37
2018-08-23T10:29:29.637Z,7.60
2018-08-23T10:31:57.927Z,7.30
2018-08-23T10:34:26.224Z,6.13
2018-08-23T10:36:54.421Z,7.37
2018-08-23T10:39:22.668Z,7.13
2018-08-23T10:41:50.897Z,6.17
2018-08-23T10:44:19.375Z,7.30
2018-08-23T10:46:53.060Z,7.50
2018-08-23T10:49:21.264Z,6.80
2018-08-23T10:51:49.509Z,6.47
2018-08-23T10:54:17.770Z,9.93
2018-08-23T10:56:46.028Z,13.80
2018-08-23T10:59:14.379Z,30.17
2018-08-23T11:01:42.586Z,20.13
2018-08-23T11:04:11.197Z,10.23
2018-08-23T11:06:44.677Z,8.53
2018-08-23T11:09:18.149Z,9.07
2018-08-23T11:11:46.405Z,7.03
2018-08-23T11:14:19.973Z,5.80
2018-08-23T11:16:53.666Z,6.17
2018-08-23T11:19:27.085Z,5.30
2018-08-23T11:21:55.309Z,5.60
2018-08-23T11:24:23.533Z,5.03
2018-08-23T11:26:51.821Z,4.53
2018-08-23T11:29:22.173Z,4.47
2018-08-23T11:31:50.889Z,4.60
2018-08-23T11:34:19.114Z,5.10
2018-08-23T11:36:47.425Z,4.53
2018-08-23T11:39:15.637Z,4.47
2018-08-23T11:41:43.903Z,4.07
2018-08-23T11:44:12.118Z,4.77
2018-08-23T11:46:40.333Z,3.80
2018-08-23T11:49:08.534Z,4.10
2018-08-23T11:51:36.817Z,4.97
2018-08-23T11:54:05.133Z,4.40
2018-08-23T11:56:33.448Z,3.83
2018-08-23T11:59:02.037Z,4.03
2018-08-23T12:01:30.244Z,3.50
2018-08-23T12:03:58.492Z,4.00
2018-08-23T12:06:26.760Z,4.07
2018-08-23T12:08:54.949Z,3.00
2018-08-23T12:11:23.157Z,3.53
2018-08-23T12:13:51.794Z,3.57
2018-08-23T12:16:20.089Z,3.33
2018-08-23T12:18:48.713Z,3.57
2018-08-23T12:21:16.962Z,3.20
2018-08-23T12:23:45.184Z,3.47
2018-08-23T12:26:13.446Z,4.47
2018-08-23T12:28:46.994Z,5.30
2018-08-23T12:31:15.406Z,4.93
2018-08-23T12:33:43.632Z,4.53
2018-08-23T12:36:12.277Z,5.17
2018-08-23T12:38:45.940Z,5.27
2018-08-23T12:41:19.485Z,5.37
2018-08-23T12:43:48.853Z,5.97
2018-08-23T12:46:17.559Z,4.50
2018-08-23T12:48:46.048Z,5.17
2018-08-23T12:51:14.325Z,4.57
2018-08-23T12:53:42.549Z,5.23
2018-08-23T12:56:11.074Z,6.00
2018-08-23T12:58:39.371Z,6.10
2018-08-23T13:01:07.565Z,6.20
2018-08-23T13:03:35.880Z,6.10
2018-08-23T13:06:04.144Z,5.93
2018-08-23T13:08:32.445Z,5.50
2018-08-23T13:11:00.692Z,5.30
2018-08-23T13:13:28.904Z,6.40
2018-08-23T13:15:57.145Z,6.10
2018-08-23T13:18:25.400Z,6.17
2018-08-23T13:20:53.612Z,6.40
2018-08-23T13:23:21.845Z,5.53
2018-08-23T13:25:55.479Z,6.40
2018-08-23T13:28:24.493Z,5.63
2018-08-23T13:30:53.095Z,6.00
2018-08-23T13:33:21.406Z,6.10
2018-08-23T13:35:49.884Z,4.77
2018-08-23T13:38:18.290Z,6.60
2018-08-23T13:40:46.537Z,5.93
2018-08-23T13:43:14.798Z,5.83
2018-08-23T13:45:43.145Z,5.10
2018-08-23T13:48:11.377Z,5.23
2018-08-23T13:50:39.612Z,6.23
2018-08-23T13:53:07.989Z,5.90
2018-08-23T13:55:36.233Z,7.50
2018-08-23T13:58:04.524Z,6.07
2018-08-23T14:00:37.977Z,6.53
2018-08-23T14:03:07.272Z,6.40
2018-08-23T14:05:35.599Z,6.23
2018-08-23T14:08:03.857Z,6.83
2018-08-23T14:10:32.165Z,6.07
2018-08-23T14:13:00.395Z,7.00
2018-08-23T14:15:33.864Z,5.87
2018-08-23T14:18:02.162Z,7.70
2018-08-23T14:20:30.393Z,7.23
2018-08-23T14:22:58.665Z,7.77
2018-08-23T14:25:26.877Z,8.00
2018-08-23T14:27:55.377Z,8.77
2018-08-23T14:30:23.713Z,9.17
2018-08-23T14:32:51.999Z,7.80
2018-08-23T14:35:20.204Z,8.50
2018-08-23T14:37:48.477Z,9.40
2018-08-23T14:40:16.762Z,8.63
2018-08-23T14:42:45.009Z,9.47
2018-08-23T14:45:17.453Z,9.33
2018-08-23T14:47:51.109Z,9.90
2018-08-23T14:50:19.380Z,10.00
2018-08-23T14:52:47.660Z,9.77
2018-08-23T14:55:20.141Z,8.50
2018-08-23T14:57:48.417Z,7.87
2018-08-23T15:00:16.673Z,8.57
2018-08-23T15:02:44.905Z,8.67
2018-08-23T15:05:13.285Z,10.60
2018-08-23T15:07:41.612Z,10.43
2018-08-23T15:10:09.825Z,7.83
2018-08-23T15:12:38.101Z,9.97
2018-08-23T15:15:08.328Z,9.37
2018-08-23T15:17:36.549Z,8.77
2018-08-23T15:20:04.920Z,7.93
2018-08-23T15:22:33.165Z,7.07
2018-08-23T15:25:01.413Z,7.50
2018-08-23T15:27:32.749Z,6.70
2018-08-23T15:30:01.822Z,7.03
2018-08-23T15:32:30.161Z,8.73
2018-08-23T15:34:58.423Z,7.17
2018-08-23T15:37:26.689Z,6.00
2018-08-23T15:39:55.021Z,6.33
2018-08-23T15:42:23.301Z,6.57
2018-08-23T15:44:51.608Z,5.70
2018-08-23T15:47:19.840Z,7.73
2018-08-23T15:49:48.089Z,6.30
2018-08-23T15:52:16.425Z,7.53
2018-08-23T15:54:44.665Z,7.40
2018-08-23T15:57:12.896Z,6.33
2018-08-23T15:59:41.117Z,7.30
2018-08-23T16:02:09.361Z,7.57
2018-08-23T16:04:37.590Z,6.27
2018-08-23T16:07:05.856Z,7.70
2018-08-23T16:09:34.169Z,7.13
2018-08-23T16:12:02.393Z,9.30
2018-08-23T16:14:30.658Z,10.90
2018-08-23T16:17:04.333Z,12.07
2018-08-23T16:19:37.756Z,11.13
2018-08-23T16:22:06.119Z,10.97
2018-08-23T16:24:34.341Z,11.00
2018-08-23T16:27:02.639Z,10.10
2018-08-23T16:29:30.885Z,9.80
2018-08-23T16:31:59.211Z,11.33
2018-08-23T16:34:27.715Z,9.33
2018-08-23T16:36:56.006Z,11.17
2018-08-23T16:39:24.325Z,8.97
2018-08-23T16:41:52.607Z,10.23
2018-08-23T16:44:20.839Z,9.33
2018-08-23T16:46:49.128Z,9.53
2018-08-23T16:49:17.392Z,6.93
2018-08-23T16:51:45.628Z,7.50
2018-08-23T16:54:13.829Z,7.80
2018-08-23T16:56:42.092Z,7.40
2018-08-23T16:59:10.377Z,7.27
2018-08-23T17:01:38.593Z,7.70
2018-08-23T17:04:06.887Z,7.97
2018-08-23T17:06:35.029Z,7.33
2018-08-23T17:09:03.345Z,7.17
2018-08-23T17:11:31.719Z,6.87
2018-08-23T17:13:59.921Z,6.37
2018-08-23T17:16:33.637Z,6.20
2018-08-23T17:19:01.886Z,5.90
2018-08-23T17:21:30.117Z,5.20
2018-08-23T17:23:58.401Z,4.67
2018-08-23T17:26:26.625Z,5.50
2018-08-23T17:28:54.845Z,4.80
2018-08-23T17:31:23.137Z,6.03
2018-08-23T17:33:51.397Z,4.60
2018-08-23T17:36:19.629Z,5.23
2018-08-23T17:38:47.895Z,3.63
2018-08-23T17:41:16.206Z,5.17
2018-08-23T17:43:44.449Z,4.43
2018-08-23T17:46:12.693Z,4.17
2018-08-23T17:48:40.909Z,5.27
2018-08-23T17:51:09.145Z,4.10
2018-08-23T17:53:37.403Z,4.43
2018-08-23T17:56:05.906Z,3.63
2018-08-23T17:58:34.161Z,3.63
2018-08-23T18:01:02.470Z,3.70
2018-08-23T18:03:30.682Z,3.67
2018-08-23T18:05:58.933Z,2.90
2018-08-23T18:08:27.201Z,3.67
2018-08-23T18:10:55.465Z,3.33
2018-08-23T18:13:23.725Z,3.13
2018-08-23T18:15:57.181Z,2.57
2018-08-23T18:18:25.381Z,3.00
2018-08-23T18:20:53.591Z,2.97
2018-08-23T18:23:22.025Z,2.90
2018-08-23T18:25:50.245Z,2.60
2018-08-23T18:28:18.498Z,2.80
2018-08-23T18:30:46.789Z,2.77
2018-08-23T18:33:15.048Z,2.90
2018-08-23T18:35:43.297Z,3.40
2018-08-23T18:38:11.533Z,2.83
2018-08-23T18:40:39.745Z,3.40
2018-08-23T18:43:07.965Z,2.80
2018-08-23T18:45:36.201Z,2.73
2018-08-23T18:48:04.445Z,2.97
2018-08-23T18:50:32.657Z,3.03
2018-08-23T18:53:03.929Z,2.80
2018-08-23T18:55:32.202Z,2.93
2018-08-23T18:58:00.441Z,2.80
2018-08-23T19:00:28.921Z,3.10
2018-08-23T19:02:57.261Z,2.80
2018-08-23T19:05:25.521Z,2.67
2018-08-23T19:07:53.756Z,2.60
2018-08-23T19:10:22.027Z,2.70
2018-08-23T19:12:50.353Z,2.40
2018-08-23T19:15:23.825Z,2.83
2018-08-23T19:17:52.210Z,2.70
2018-08-23T19:20:20.429Z,2.93
2018-08-23T19:22:48.696Z,2.67
2018-08-23T19:25:17.121Z,2.50
2018-08-23T19:27:45.213Z,2.43
2018-08-23T19:30:13.416Z,3.00
2018-08-23T19:32:41.624Z,2.30
2018-08-23T19:35:09.952Z,2.73
2018-08-23T19:37:38.209Z,3.13
2018-08-23T19:40:06.513Z,2.63
2018-08-23T19:42:34.808Z,2.67
2018-08-23T19:45:03.184Z,2.30
2018-08-23T19:47:36.706Z,2.53
2018-08-23T19:50:08.725Z,2.60
2018-08-23T19:52:37.184Z,2.97
2018-08-23T19:55:05.549Z,2.33
2018-08-23T19:57:33.760Z,2.30
2018-08-23T20:00:02.007Z,2.33
2018-08-23T20:02:30.221Z,2.60
2018-08-23T20:04:58.493Z,2.30
2018-08-23T20:07:26.769Z,2.50
2018-08-23T20:09:54.984Z,2.10
2018-08-23T20:12:23.263Z,2.40
2018-08-23T20:14:51.501Z,2.40
2018-08-23T20:17:19.732Z,2.77
2018-08-23T20:19:47.997Z,2.40
2018-08-23T20:22:16.280Z,2.47
2018-08-23T20:24:44.580Z,2.20
2018-08-23T20:27:12.777Z,2.03
2018-08-23T20:29:41.208Z,2.30
2018-08-23T20:32:09.497Z,2.37
2018-08-23T20:34:37.673Z,2.00
2018-08-23T20:37:05.928Z,2.70
2018-08-23T20:39:34.296Z,2.10
2018-08-23T20:42:02.477Z,2.27
2018-08-23T20:44:30.758Z,2.37
2018-08-23T20:46:59.018Z,2.07
2018-08-23T20:49:27.241Z,2.20
2018-08-23T20:51:55.513Z,2.50
2018-08-23T20:54:23.751Z,2.10
2018-08-23T20:56:51.985Z,2.20
2018-08-23T20:59:20.233Z,2.00
2018-08-23T21:01:48.453Z,2.00
2018-08-23T21:04:16.710Z,2.37
2018-08-23T21:06:44.922Z,1.93
2018-08-23T21:09:13.860Z,2.40
2018-08-23T21:11:42.137Z,2.27
2018-08-23T21:14:11.084Z,2.10
2018-08-23T21:16:39.353Z,2.10
2018-08-23T21:19:07.709Z,2.33
2018-08-23T21:21:35.990Z,2.27
2018-08-23T21:24:04.213Z,2.13
2018-08-23T21:26:32.441Z,2.37
2018-08-23T21:29:00.716Z,2.63
2018-08-23T21:31:28.917Z,2.30
2018-08-23T21:33:57.149Z,2.37
2018-08-23T21:36:25.426Z,2.70
2018-08-23T21:38:53.669Z,2.13
2018-08-23T21:41:22.053Z,2.17
2018-08-23T21:43:50.269Z,2.13
2018-08-23T21:46:18.608Z,2.30
2018-08-23T21:48:47.040Z,2.67
2018-08-23T21:51:15.382Z,2.10
2018-08-23T21:53:43.627Z,1.87
2018-08-23T21:56:11.874Z,2.13
2018-08-23T21:58:40.113Z,2.10
2018-08-23T22:01:09.345Z,2.30
2018-08-23T22:03:38.061Z,1.97
2018-08-23T22:06:06.332Z,2.13
2018-08-23T22:08:34.832Z,1.80
2018-08-23T22:11:03.229Z,2.03
2018-08-23T22:13:31.729Z,2.33
2018-08-23T22:15:59.962Z,2.07
2018-08-23T22:18:28.168Z,2.33
2018-08-23T22:20:56.477Z,1.80
2018-08-23T22:23:24.704Z,2.33
2018-08-23T22:25:52.919Z,2.13
2018-08-23T22:28:21.165Z,1.77
2018-08-23T22:30:49.426Z,2.27
2018-08-23T22:33:17.760Z,2.10
2018-08-23T22:35:45.996Z,2.47
2018-08-23T22:38:14.220Z,2.00
2018-08-23T22:40:42.442Z,2.20
2018-08-23T22:43:10.705Z,2.00
2018-08-23T22:45:38.925Z,2.33
2018-08-23T22:48:07.238Z,2.00
2018-08-23T22:50:35.441Z,2.17
2018-08-23T22:53:03.652Z,2.83
2018-08-23T22:55:31.901Z,2.20
2018-08-23T22:58:00.186Z,2.17
2018-08-23T23:00:33.805Z,2.37
2018-08-23T23:03:02.075Z,2.03
2018-08-23T23:05:30.309Z,2.20
2018-08-23T23:08:02.697Z,2.23
2018-08-23T23:10:30.898Z,2.00
2018-08-23T23:12:59.145Z,2.10
2018-08-23T23:15:27.433Z,2.10
2018-08-23T23:17:55.926Z,2.27
2018-08-23T23:20:24.145Z,3.00
2018-08-23T23:22:52.380Z,2.10
2018-08-23T23:25:20.629Z,2.23
2018-08-23T23:27:48.836Z,2.13
2018-08-23T23:30:17.061Z,1.97
2018-08-23T23:32:45.285Z,1.80
2018-08-23T23:35:13.497Z,1.83
2018-08-23T23:37:41.732Z,2.10
2018-08-23T23:40:09.980Z,2.10
2018-08-23T23:42:38.872Z,2.10
2018-08-23T23:45:07.924Z,1.83
2018-08-23T23:47:36.163Z,2.20
2018-08-23T23:50:04.833Z,2.10
2018-08-23T23:52:33.054Z,1.90
2018-08-23T23:55:01.333Z,2.30
2018-08-23T23:57:29.577Z,2.00
2018-08-23T23:59:58.069Z,2.07
